createdAt,value
2018-12-02T00:02:01.676Z,63.48
2018-12-02T00:04:32.090Z,63.31
2018-12-02T00:07:02.254Z,63.13
2018-12-02T00:09:34.477Z,62.63
2018-12-02T00:12:06.047Z,63.28
2018-12-02T00:14:35.989Z,62.51
2018-12-02T00:17:06.226Z,62.44
2018-12-02T00:19:37.071Z,62.35
2018-12-02T00:22:07.624Z,62.54
2018-12-02T00:24:39.759Z,61.63
2018-12-02T00:27:12.021Z,61.31
2018-12-02T00:29:42.377Z,60.67
2018-12-02T00:32:13.071Z,60.44
2018-12-02T00:34:44.493Z,60.73
2018-12-02T00:37:14.440Z,60.23
2018-12-02T00:39:44.567Z,60.48
2018-12-02T00:42:15.431Z,60.20
2018-12-02T00:44:45.149Z,60.04
2018-12-02T00:47:15.169Z,60.04
2018-12-02T00:49:45.447Z,59.51
2018-12-02T00:52:15.550Z,59.46
2018-12-02T00:54:45.409Z,59.42
2018-12-02T00:57:15.367Z,59.55
2018-12-02T00:59:45.639Z,59.67
2018-12-02T01:02:15.556Z,60.02
2018-12-02T01:04:45.907Z,59.93
2018-12-02T01:07:16.164Z,59.71
2018-12-02T01:09:45.909Z,59.40
2018-12-02T01:12:16.027Z,59.53
2018-12-02T01:14:45.547Z,59.10
2018-12-02T01:17:15.265Z,59.35
2018-12-02T01:19:45.396Z,59.55
2018-12-02T01:22:15.497Z,59.88
2018-12-02T01:24:45.645Z,59.13
2018-12-02T01:27:16.125Z,59.65
2018-12-02T01:29:45.888Z,60.00
2018-12-02T01:32:16.657Z,59.99
2018-12-02T01:34:46.521Z,59.86
2018-12-02T01:37:16.362Z,59.84
2018-12-02T01:39:46.527Z,59.85
2018-12-02T01:42:17.114Z,59.25
2018-12-02T01:44:47.053Z,59.22
2018-12-02T01:47:16.842Z,59.68
2018-12-02T01:49:47.124Z,59.67
2018-12-02T01:52:17.080Z,59.52
2018-12-02T01:54:47.022Z,59.28
2018-12-02T01:57:18.344Z,60.35
2018-12-02T01:59:48.014Z,60.52
2018-12-02T02:02:17.772Z,60.65
2018-12-02T02:04:48.219Z,60.79
2018-12-02T02:07:19.038Z,62.12
2018-12-02T02:09:48.942Z,62.04
2018-12-02T02:12:19.048Z,62.51
2018-12-02T02:14:49.260Z,62.44
2018-12-02T02:17:19.205Z,62.38
2018-12-02T02:19:50.031Z,62.16
2018-12-02T02:22:19.993Z,62.26
2018-12-02T02:24:49.985Z,62.29
2018-12-02T02:27:20.174Z,62.80
2018-12-02T02:29:49.917Z,62.42
2018-12-02T02:32:19.429Z,63.26
2018-12-02T02:34:50.865Z,63.30
2018-12-02T02:37:20.889Z,63.62
2018-12-02T02:39:50.856Z,63.35
2018-12-02T02:42:21.064Z,63.44
2018-12-02T02:44:52.600Z,63.51
2018-12-02T02:47:22.296Z,63.45
2018-12-02T02:49:52.418Z,63.40
2018-12-02T02:52:22.035Z,64.12
2018-12-02T02:54:51.901Z,64.12
2018-12-02T02:57:22.293Z,63.82
2018-12-02T02:59:51.993Z,64.51
2018-12-02T03:02:21.708Z,64.29
2018-12-02T03:04:52.649Z,64.70
2018-12-02T03:07:22.509Z,64.10
2018-12-02T03:09:53.138Z,64.27
2018-12-02T03:12:23.827Z,64.63
2018-12-02T03:14:53.861Z,64.93
2018-12-02T03:17:24.751Z,65.23
2018-12-02T03:19:54.691Z,66.42
2018-12-02T03:22:25.823Z,66.33
2018-12-02T03:24:55.553Z,66.19
2018-12-02T03:27:25.514Z,66.59
2018-12-02T03:29:55.331Z,66.99
2018-12-02T03:32:26.297Z,66.76
2018-12-02T03:34:56.006Z,66.42
2018-12-02T03:37:26.027Z,66.15
2018-12-02T03:39:56.393Z,65.83
2018-12-02T03:42:27.192Z,65.70
2018-12-02T03:44:57.294Z,66.09
2018-12-02T03:47:29.069Z,66.47
2018-12-02T03:49:58.814Z,67.05
2018-12-02T03:52:29.440Z,66.83
2018-12-02T03:54:59.653Z,67.23
2018-12-02T03:57:29.973Z,67.04
2018-12-02T04:00:01.145Z,67.05
2018-12-02T04:02:31.142Z,66.81
2018-12-02T04:05:00.706Z,66.80
2018-12-02T04:07:30.602Z,66.87
2018-12-02T04:10:00.970Z,67.17
2018-12-02T04:12:30.974Z,67.74
2018-12-02T04:15:00.707Z,67.93
2018-12-02T04:17:32.109Z,67.74
2018-12-02T04:20:03.132Z,67.86
2018-12-02T04:22:33.922Z,67.61
2018-12-02T04:25:05.755Z,67.38
2018-12-02T04:27:36.270Z,67.31
2018-12-02T04:30:13.693Z,67.41
2018-12-02T04:32:44.895Z,67.19
2018-12-02T04:35:17.512Z,67.86
2018-12-02T04:37:47.847Z,68.02
2018-12-02T04:40:17.705Z,67.40
2018-12-02T04:42:47.685Z,67.77
2018-12-02T04:45:19.091Z,67.58
2018-12-02T04:47:48.942Z,67.24
2018-12-02T04:50:21.508Z,67.36
2018-12-02T04:52:51.636Z,68.10
2018-12-02T04:55:21.763Z,67.84
2018-12-02T04:57:52.271Z,68.59
2018-12-02T05:00:22.548Z,68.26
2018-12-02T05:02:53.851Z,68.05
2018-12-02T05:05:25.516Z,68.10
2018-12-02T05:07:55.629Z,68.09
2018-12-02T05:10:25.405Z,68.62
2018-12-02T05:12:55.534Z,68.03
2018-12-02T05:15:25.602Z,68.07
2018-12-02T05:17:55.280Z,68.31
2018-12-02T05:20:25.313Z,68.34
2018-12-02T05:22:55.177Z,68.45
2018-12-02T05:25:25.348Z,68.90
2018-12-02T05:27:55.360Z,69.21
2018-12-02T05:30:25.281Z,68.57
2018-12-02T05:32:55.144Z,69.05
2018-12-02T05:35:24.607Z,69.41
2018-12-02T05:37:55.241Z,68.93
2018-12-02T05:40:25.615Z,69.71
2018-12-02T05:42:55.899Z,69.80
2018-12-02T05:45:25.469Z,70.55
2018-12-02T05:47:55.205Z,70.08
2018-12-02T05:50:26.088Z,70.24
2018-12-02T05:53:03.582Z,70.08
2018-12-02T05:55:35.847Z,70.41
2018-12-02T05:58:06.147Z,69.98
2018-12-02T06:00:35.911Z,70.26
2018-12-02T06:03:05.780Z,70.62
2018-12-02T06:07:00.303Z,70.42
2018-12-02T06:09:30.099Z,70.19
2018-12-02T06:12:02.312Z,70.03
2018-12-02T06:14:32.487Z,70.38
2018-12-02T06:17:02.156Z,70.05
2018-12-02T06:19:32.337Z,70.20
2018-12-02T06:22:02.131Z,70.39
2018-12-02T06:24:31.968Z,70.44
2018-12-02T06:27:01.827Z,69.89
2018-12-02T06:29:31.479Z,70.51
2018-12-02T06:32:01.246Z,70.12
2018-12-02T06:34:30.905Z,70.10
2018-12-02T06:37:00.831Z,69.94
2018-12-02T06:39:31.007Z,70.12
2018-12-02T06:42:01.007Z,70.00
2018-12-02T06:44:31.001Z,69.79
2018-12-02T06:47:00.475Z,70.24
2018-12-02T06:49:30.571Z,70.56
2018-12-02T06:52:00.352Z,70.12
2018-12-02T06:54:36.647Z,70.21
2018-12-02T06:57:09.383Z,70.22
2018-12-02T06:59:54.517Z,70.38
2018-12-02T07:02:48.342Z,70.22
2018-12-02T07:05:24.772Z,69.81
2018-12-02T07:07:54.649Z,69.47
2018-12-02T07:10:24.717Z,69.43
2018-12-02T07:12:54.386Z,69.50
2018-12-02T07:15:24.192Z,69.10
2018-12-02T07:17:58.518Z,69.54
2018-12-02T07:20:31.877Z,70.02
2018-12-02T07:23:03.861Z,69.61
2018-12-02T07:25:37.363Z,69.71
2018-12-02T07:28:07.704Z,69.58
2018-12-02T07:30:38.049Z,70.23
2018-12-02T07:33:08.202Z,70.91
2018-12-02T07:35:38.273Z,71.56
2018-12-02T07:38:18.813Z,72.15
2018-12-02T07:40:48.759Z,72.27
2018-12-02T07:43:18.388Z,72.63
2018-12-02T07:45:48.558Z,73.32
2018-12-02T07:48:18.995Z,73.76
2018-12-02T07:50:48.916Z,74.36
2018-12-02T07:53:18.964Z,74.86
2018-12-02T07:55:49.229Z,75.27
2018-12-02T07:58:19.304Z,75.58
2018-12-02T08:00:49.468Z,75.87
2018-12-02T08:03:19.404Z,76.21
2018-12-02T08:07:14.304Z,76.52
2018-12-02T08:09:44.212Z,77.26
2018-12-02T08:12:14.476Z,77.21
2018-12-02T08:14:45.063Z,77.23
2018-12-02T08:17:14.604Z,77.46
2018-12-02T08:19:44.434Z,77.81
2018-12-02T08:22:14.412Z,77.75
2018-12-02T08:24:44.683Z,77.99
2018-12-02T08:27:14.268Z,77.71
2018-12-02T08:29:44.944Z,77.30
2018-12-02T08:32:15.040Z,77.54
2018-12-02T08:34:45.143Z,77.63
2018-12-02T08:37:15.769Z,77.46
2018-12-02T08:41:12.357Z,77.58
2018-12-02T08:43:48.582Z,78.36
2018-12-02T08:46:19.123Z,78.48
2018-12-02T08:48:48.925Z,78.75
2018-12-02T08:51:19.719Z,78.46
2018-12-02T08:53:51.003Z,78.34
2018-12-02T08:56:20.821Z,78.18
2018-12-02T08:58:52.940Z,77.85
2018-12-02T09:01:23.740Z,78.03
2018-12-02T09:03:55.211Z,78.29
2018-12-02T09:06:25.135Z,78.21
2018-12-02T09:08:54.622Z,78.05
2018-12-02T09:11:24.775Z,77.99
2018-12-02T09:13:54.406Z,77.87
2018-12-02T09:16:24.687Z,77.54
2018-12-02T09:18:54.255Z,77.76
2018-12-02T09:21:24.254Z,78.06
2018-12-02T09:23:54.938Z,77.80
2018-12-02T09:26:26.042Z,77.45
2018-12-02T09:28:58.007Z,77.02
2018-12-02T09:31:28.530Z,76.54
2018-12-02T09:33:59.037Z,76.49
2018-12-02T09:36:29.353Z,75.97
2018-12-02T09:38:59.650Z,75.81
2018-12-02T09:41:30.840Z,76.10
2018-12-02T09:44:01.112Z,74.99
2018-12-02T09:46:31.766Z,74.55
2018-12-02T09:49:06.314Z,74.64
2018-12-02T09:51:36.210Z,73.60
2018-12-02T09:54:06.425Z,73.25
2018-12-02T09:56:36.175Z,73.24
2018-12-02T09:59:06.045Z,72.29
2018-12-02T10:01:35.908Z,72.44
2018-12-02T10:04:10.277Z,72.03
2018-12-02T10:06:40.196Z,71.99
2018-12-02T10:09:11.750Z,71.64
2018-12-02T10:11:41.294Z,71.47
2018-12-02T10:14:14.216Z,70.77
2018-12-02T10:16:43.974Z,70.57
2018-12-02T10:19:14.921Z,70.49
2018-12-02T10:21:46.279Z,70.24
2018-12-02T10:24:16.155Z,70.96
2018-12-02T10:26:46.584Z,70.23
2018-12-02T10:29:17.307Z,69.86
2018-12-02T10:31:47.483Z,69.78
2018-12-02T10:34:17.751Z,70.38
2018-12-02T10:36:48.215Z,69.58
2018-12-02T10:39:18.038Z,69.70
2018-12-02T10:41:47.988Z,69.38
2018-12-02T10:44:18.061Z,69.70
2018-12-02T10:46:47.933Z,69.42
2018-12-02T10:49:17.814Z,69.67
2018-12-02T10:51:47.475Z,69.65
2018-12-02T10:54:16.990Z,69.78
2018-12-02T10:56:46.996Z,69.89
2018-12-02T10:59:17.623Z,69.74
2018-12-02T11:01:47.483Z,69.54
2018-12-02T11:04:17.319Z,69.49
2018-12-02T11:06:47.039Z,68.63
2018-12-02T11:09:16.663Z,68.41
2018-12-02T11:11:47.562Z,68.86
2018-12-02T11:14:18.456Z,67.92
2018-12-02T11:16:48.118Z,68.55
2018-12-02T11:19:18.176Z,68.42
2018-12-02T11:21:48.044Z,68.20
2018-12-02T11:24:18.712Z,68.19
2018-12-02T11:26:48.560Z,68.01
2018-12-02T11:29:18.399Z,67.73
2018-12-02T11:31:48.411Z,68.23
2018-12-02T11:34:18.846Z,68.01
2018-12-02T11:36:48.412Z,68.67
2018-12-02T11:39:20.039Z,68.80
2018-12-02T11:41:50.850Z,68.80
2018-12-02T11:44:20.894Z,68.69
2018-12-02T11:46:50.801Z,69.23
2018-12-02T11:49:21.174Z,68.95
2018-12-02T11:51:51.225Z,69.71
2018-12-02T11:54:21.396Z,70.58
2018-12-02T11:56:51.741Z,70.89
2018-12-02T11:59:22.763Z,70.95
2018-12-02T12:01:53.099Z,72.02
2018-12-02T12:04:23.059Z,72.18
2018-12-02T12:06:53.485Z,71.67
2018-12-02T12:09:24.363Z,71.21
2018-12-02T12:11:54.900Z,71.18
2018-12-02T12:14:24.643Z,71.25
2018-12-02T12:16:55.396Z,70.90
2018-12-02T12:19:24.973Z,70.99
2018-12-02T12:21:55.463Z,70.84
2018-12-02T12:24:25.192Z,70.16
2018-12-02T12:26:55.428Z,70.23
2018-12-02T12:29:25.328Z,69.69
2018-12-02T12:31:55.199Z,69.60
2018-12-02T12:34:29.388Z,69.60
2018-12-02T12:37:01.641Z,68.63
2018-12-02T12:39:31.875Z,68.56
2018-12-02T12:42:07.574Z,69.14
2018-12-02T12:44:37.357Z,69.02
2018-12-02T12:47:07.879Z,69.45
2018-12-02T12:49:37.448Z,69.30
2018-12-02T12:52:07.642Z,69.79
2018-12-02T12:54:37.929Z,69.58
2018-12-02T12:57:08.213Z,70.31
2018-12-02T12:59:40.097Z,71.48
2018-12-02T13:02:13.434Z,71.81
2018-12-02T13:04:43.549Z,71.86
2018-12-02T13:07:13.514Z,71.48
2018-12-02T13:09:44.483Z,72.14
2018-12-02T13:12:14.648Z,72.98
2018-12-02T13:14:44.741Z,73.07
2018-12-02T13:17:16.034Z,73.32
2018-12-02T13:19:45.848Z,73.52
2018-12-02T13:22:17.566Z,73.75
2018-12-02T13:24:47.682Z,73.36
2018-12-02T13:27:17.396Z,73.85
2018-12-02T13:29:47.487Z,73.39
2018-12-02T13:32:18.830Z,73.23
2018-12-02T13:34:48.440Z,73.23
2018-12-02T13:37:18.967Z,73.48
2018-12-02T13:39:49.290Z,74.34
2018-12-02T13:42:19.582Z,74.56
2018-12-02T13:48:22.714Z,74.17
2018-12-02T13:50:54.575Z,74.29
2018-12-02T13:53:24.567Z,74.80
2018-12-02T13:55:54.968Z,74.46
2018-12-02T13:58:24.664Z,74.63
2018-12-02T14:00:54.337Z,74.77
2018-12-02T14:03:25.317Z,74.94
2018-12-02T14:05:56.704Z,74.94
2018-12-02T14:08:28.020Z,76.01
2018-12-02T14:10:58.469Z,76.28
2018-12-02T14:13:29.729Z,75.73
2018-12-02T14:16:15.796Z,76.85
2018-12-02T14:18:49.855Z,76.35
2018-12-02T14:21:23.084Z,75.97
2018-12-02T14:23:55.121Z,76.56
2018-12-02T14:26:24.981Z,77.08
2018-12-02T14:28:59.551Z,76.31
2018-12-02T14:31:33.860Z,76.48
2018-12-02T14:34:03.850Z,76.38
2018-12-02T14:36:33.397Z,75.53
2018-12-02T14:39:05.961Z,75.39
2018-12-02T14:41:37.091Z,75.64
2018-12-02T14:44:08.698Z,75.06
2018-12-02T14:46:38.880Z,75.14
2018-12-02T14:49:08.885Z,75.22
2018-12-02T14:51:38.668Z,74.91
2018-12-02T14:54:08.753Z,75.77
2018-12-02T14:56:38.631Z,75.43
2018-12-02T14:59:08.236Z,75.20
2018-12-02T15:01:38.079Z,75.36
2018-12-02T15:04:08.077Z,74.87
2018-12-02T15:06:37.671Z,74.85
2018-12-02T15:09:10.312Z,74.23
2018-12-02T15:11:40.306Z,74.19
2018-12-02T15:14:12.111Z,74.02
2018-12-02T15:16:41.790Z,73.49
2018-12-02T15:19:12.931Z,73.89
2018-12-02T15:21:42.640Z,73.98
2018-12-02T15:24:12.360Z,73.48
2018-12-02T15:26:42.378Z,73.56
2018-12-02T15:29:11.932Z,73.89
2018-12-02T15:31:41.428Z,73.65
2018-12-02T15:34:11.871Z,73.38
2018-12-02T15:36:42.114Z,73.52
2018-12-02T15:39:12.738Z,73.91
2018-12-02T15:41:42.680Z,73.74
2018-12-02T15:44:12.718Z,74.11
2018-12-02T15:46:42.313Z,73.41
2018-12-02T15:49:13.301Z,74.11
2018-12-02T15:51:42.911Z,74.07
2018-12-02T15:54:12.724Z,74.87
2018-12-02T15:56:43.005Z,74.50
2018-12-02T15:59:14.505Z,75.06
2018-12-02T16:01:45.140Z,74.86
2018-12-02T16:04:15.077Z,75.20
2018-12-02T16:06:47.625Z,75.63
2018-12-02T16:09:17.743Z,75.71
2018-12-02T16:11:47.349Z,76.55
2018-12-02T16:14:16.871Z,76.92
2018-12-02T16:16:46.435Z,77.04
2018-12-02T16:19:16.083Z,77.42
2018-12-02T16:21:45.952Z,77.88
2018-12-02T16:24:15.950Z,78.53
2018-12-02T16:26:45.487Z,77.38
2018-12-02T16:29:15.312Z,77.46
2018-12-02T16:31:44.955Z,76.80
2018-12-02T16:34:14.963Z,76.83
2018-12-02T16:36:45.427Z,76.25
2018-12-02T16:39:15.587Z,76.38
2018-12-02T16:41:45.472Z,76.52
2018-12-02T16:44:15.514Z,77.25
2018-12-02T16:46:45.002Z,77.10
2018-12-02T16:49:14.631Z,77.00
2018-12-02T16:51:44.469Z,77.06
2018-12-02T16:54:14.228Z,77.16
2018-12-02T16:56:44.288Z,77.73
2018-12-02T16:59:32.159Z,77.54
2018-12-02T17:02:05.427Z,77.85
2018-12-02T17:04:34.887Z,78.12
2018-12-02T17:07:04.425Z,78.08
2018-12-02T17:09:33.953Z,77.88
2018-12-02T17:12:04.002Z,78.03
2018-12-02T17:14:38.540Z,78.55
2018-12-02T17:17:03.295Z,78.91
2018-12-02T17:19:33.294Z,79.13
2018-12-02T17:22:03.245Z,79.07
2018-12-02T17:24:33.104Z,79.36
2018-12-02T17:27:03.296Z,78.87
2018-12-02T17:29:33.238Z,79.97
2018-12-02T17:32:07.232Z,80.60
2018-12-02T17:34:37.180Z,80.12
2018-12-02T17:37:06.948Z,80.81
2018-12-02T17:39:41.305Z,80.54
2018-12-02T17:42:12.789Z,80.79
2018-12-02T17:44:42.395Z,80.76
2018-12-02T17:47:12.717Z,80.17
2018-12-02T17:49:42.882Z,80.08
2018-12-02T17:52:12.393Z,79.39
2018-12-02T17:54:41.994Z,80.12
2018-12-02T17:57:11.990Z,79.21
2018-12-02T17:59:41.513Z,79.60
2018-12-02T18:02:11.410Z,79.77
2018-12-02T18:04:41.694Z,79.73
2018-12-02T18:07:11.607Z,79.26
2018-12-02T18:09:41.311Z,80.01
2018-12-02T18:12:11.210Z,78.81
2018-12-02T18:14:40.796Z,79.98
2018-12-02T18:17:10.455Z,79.74
2018-12-02T18:19:40.370Z,79.59
2018-12-02T18:22:10.928Z,80.01
2018-12-02T18:24:41.512Z,80.22
2018-12-02T18:27:11.688Z,80.46
2018-12-02T18:29:41.552Z,81.12
2018-12-02T18:32:11.536Z,80.70
2018-12-02T18:34:42.041Z,81.15
2018-12-02T18:37:16.139Z,81.30
2018-12-02T18:39:46.099Z,81.28
2018-12-02T18:42:17.512Z,81.06
2018-12-02T18:44:47.669Z,81.64
2018-12-02T18:47:17.172Z,82.11
2018-12-02T18:49:47.609Z,81.02
2018-12-02T18:52:18.485Z,81.90
2018-12-02T18:54:48.027Z,81.37
2018-12-02T18:57:19.290Z,81.68
2018-12-02T18:59:48.846Z,81.33
2018-12-02T19:02:20.315Z,81.28
2018-12-02T19:04:50.468Z,80.73
2018-12-02T19:07:20.126Z,80.61
2018-12-02T19:09:49.993Z,80.49
2018-12-02T19:12:20.068Z,80.55
2018-12-02T19:14:49.842Z,80.79
2018-12-02T19:17:20.556Z,81.16
2018-12-02T19:19:50.560Z,80.15
2018-12-02T19:22:20.533Z,79.64
2018-12-02T19:24:50.141Z,79.38
2018-12-02T19:27:20.319Z,79.05
2018-12-02T19:29:49.889Z,78.47
2018-12-02T19:32:20.629Z,78.39
2018-12-02T19:34:51.388Z,78.44
2018-12-02T19:37:23.542Z,78.97
2018-12-02T19:39:53.415Z,79.41
2018-12-02T19:42:23.979Z,79.12
2018-12-02T19:44:54.399Z,78.69
2018-12-02T19:47:24.154Z,79.84
2018-12-02T19:49:54.747Z,79.66
2018-12-02T19:52:26.647Z,80.09
2018-12-02T19:54:56.826Z,80.17
2018-12-02T19:57:28.101Z,80.23
2018-12-02T19:59:59.175Z,79.99
2018-12-02T20:02:29.554Z,80.12
2018-12-02T20:05:00.654Z,80.15
2018-12-02T20:07:30.617Z,79.70
2018-12-02T20:10:01.151Z,79.70
2018-12-02T20:12:30.952Z,80.37
2018-12-02T20:15:01.231Z,80.43
2018-12-02T20:17:31.168Z,80.10
2018-12-02T20:20:08.716Z,80.46
2018-12-02T20:22:39.192Z,80.29
2018-12-02T20:25:09.474Z,80.16
2018-12-02T20:27:39.859Z,80.65
2018-12-02T20:30:14.491Z,80.45
2018-12-02T20:32:44.180Z,80.46
2018-12-02T20:35:14.140Z,80.17
2018-12-02T20:37:44.027Z,80.58
2018-12-02T20:40:17.044Z,80.73
2018-12-02T20:42:47.577Z,80.60
2018-12-02T20:45:19.114Z,80.60
2018-12-02T20:47:49.092Z,81.35
2018-12-02T20:50:20.673Z,81.33
2018-12-02T20:52:51.287Z,81.11
2018-12-02T20:55:24.181Z,80.86
2018-12-02T20:57:58.099Z,81.28
2018-12-02T21:00:28.573Z,80.72
2018-12-02T21:03:01.562Z,81.09
2018-12-02T21:05:35.214Z,80.47
2018-12-02T21:08:06.183Z,80.85
2018-12-02T21:10:37.016Z,80.87
2018-12-02T21:13:07.570Z,80.40
2018-12-02T21:15:37.750Z,79.94
2018-12-02T21:18:07.605Z,79.88
2018-12-02T21:20:38.500Z,79.87
2018-12-02T21:23:08.566Z,79.77
2018-12-02T21:25:38.246Z,78.91
2018-12-02T21:28:09.791Z,79.01
2018-12-02T21:30:39.662Z,78.80
2018-12-02T21:33:09.935Z,78.47
2018-12-02T21:35:39.530Z,78.13
2018-12-02T21:38:09.892Z,77.47
2018-12-02T21:40:40.410Z,77.40
2018-12-02T21:43:10.481Z,77.77
2018-12-02T21:45:40.065Z,77.51
2018-12-02T21:48:16.105Z,76.92
2018-12-02T21:50:47.814Z,77.07
2018-12-02T21:53:17.424Z,77.21
2018-12-02T21:55:47.281Z,77.18
2018-12-02T21:58:18.064Z,76.94
2018-12-02T22:00:52.783Z,77.14
2018-12-02T22:03:23.560Z,76.64
2018-12-02T22:05:53.232Z,77.11
2018-12-02T22:08:23.328Z,76.59
2018-12-02T22:10:52.990Z,76.30
2018-12-02T22:13:22.582Z,77.05
2018-12-02T22:15:52.645Z,76.71
2018-12-02T22:18:22.335Z,77.54
2018-12-02T22:20:52.453Z,77.66
2018-12-02T22:23:22.471Z,78.28
2018-12-02T22:25:52.693Z,79.10
2018-12-02T22:28:23.522Z,79.78
2018-12-02T22:30:53.762Z,79.81
2018-12-02T22:33:24.920Z,79.57
2018-12-02T22:35:54.520Z,80.34
2018-12-02T22:38:24.394Z,80.67
2018-12-02T22:40:54.616Z,80.28
2018-12-02T22:43:24.321Z,80.88
2018-12-02T22:45:55.282Z,81.01
2018-12-02T22:48:25.294Z,80.63
2018-12-02T22:50:55.256Z,81.63
2018-12-02T22:53:26.563Z,81.55
2018-12-02T22:55:56.414Z,81.76
2018-12-02T22:58:26.673Z,81.18
2018-12-02T23:01:01.406Z,81.52
2018-12-02T23:03:32.223Z,81.56
2018-12-02T23:06:03.084Z,81.59
2018-12-02T23:08:33.261Z,81.12
2018-12-02T23:11:03.757Z,81.02
2018-12-02T23:13:34.305Z,80.52
2018-12-02T23:16:05.379Z,80.67
2018-12-02T23:18:36.466Z,80.76
2018-12-02T23:21:07.466Z,79.96
2018-12-02T23:23:39.845Z,80.44
2018-12-02T23:26:10.414Z,80.28
2018-12-02T23:28:40.768Z,80.01
2018-12-02T23:31:11.436Z,80.32
2018-12-02T23:33:41.415Z,80.60
2018-12-02T23:36:12.152Z,80.56
2018-12-02T23:38:42.008Z,80.13
2018-12-02T23:41:13.146Z,80.29
2018-12-02T23:43:44.433Z,80.34
2018-12-02T23:46:16.222Z,80.51
2018-12-02T23:48:46.170Z,80.35
2018-12-02T23:51:18.349Z,80.37
2018-12-02T23:53:48.242Z,80.33
2018-12-02T23:56:18.226Z,80.02
2018-12-02T23:58:48.487Z,80.65
